Time;durP1;ratioP1;P1;durP2;ratioP2;P2;SDS_P1;SDS_P2;PMS_P1;PMS_P2;Temp;Humidity;BMP_temperature;BMP_pressure;BME280_temperature;BME280_humidity;BME280_pressure;Samples;Min_cycle;Max_cycle;Signal;HPM_P1;HPM_P2
2022/03/06 00:00:30;;;;;;;14.67;9.50;;;1.80;52.00;;;0.12;60.99;98330.75;4988823;28;21198;-70
2022/03/06 00:02:59;;;;;;;13.13;10.30;;;1.70;52.00;;;0.16;61.32;98331.31;4989048;28;20484;-71
2022/03/06 00:05:26;;;;;;;12.90;9.50;;;1.70;52.20;;;0.10;62.20;98332.72;4977266;28;20455;-68
2022/03/06 00:07:56;;;;;;;12.17;9.40;;;1.70;52.40;;;0.16;61.58;98329.47;4985158;28;20572;-69
2022/03/06 00:10:23;;;;;;;12.03;9.13;;;1.70;52.30;;;0.09;61.71;98325.72;4983255;28;20457;-70
2022/03/06 00:12:50;;;;;;;12.77;9.10;;;1.60;52.20;;;0.09;61.66;98315.09;4984582;28;20480;-68
2022/03/06 00:15:18;;;;;;;13.43;8.90;;;1.60;52.20;;;0.04;61.37;98323.47;4969566;28;20826;-71
2022/03/06 00:17:45;;;;;;;13.80;8.93;;;1.60;52.30;;;0.03;61.96;98326.25;4969828;28;20473;-69
2022/03/06 00:20:13;;;;;;;16.07;9.40;;;1.60;52.30;;;-0.04;62.24;98310.91;4986271;28;20972;-68
2022/03/06 00:22:40;;;;;;;16.37;10.53;;;1.50;52.20;;;-0.10;61.84;98322.06;4985157;28;21101;-68
2022/03/06 00:25:08;;;;;;;16.83;10.23;;;1.50;52.40;;;-0.24;62.43;98319.81;4989140;28;20467;-69
2022/03/06 00:27:36;;;;;;;10.97;8.43;;;1.40;52.50;;;-0.16;62.39;98306.69;4970051;28;20478;-68
2022/03/06 00:30:04;;;;;;;12.40;8.70;;;1.40;52.60;;;-0.30;62.43;98314.09;4987881;28;20463;-69
2022/03/06 00:32:31;;;;;;;14.70;9.73;;;1.30;52.70;;;-0.34;62.64;98320.66;4988386;28;20543;-68
2022/03/06 00:34:58;;;;;;;10.03;8.50;;;1.20;52.70;;;-0.34;63.02;98320.66;4987771;28;20522;-68
2022/03/06 00:37:26;;;;;;;13.00;9.90;;;1.20;52.70;;;-0.39;62.83;98322.88;4990861;28;20456;-67
2022/03/06 00:39:53;;;;;;;17.43;9.50;;;1.20;52.90;;;-0.43;63.18;98322.34;4990628;28;20464;-69
2022/03/06 00:42:20;;;;;;;12.73;8.83;;;1.10;52.90;;;-0.48;63.24;98324.53;4987922;28;20507;-69
2022/03/06 00:44:47;;;;;;;13.40;10.13;;;1.10;52.90;;;-0.57;63.69;98328.88;4989166;28;20579;-68
2022/03/06 00:47:14;;;;;;;14.83;9.63;;;1.00;53.10;;;-0.51;63.44;98329.31;4985904;28;20493;-74
2022/03/06 00:49:41;;;;;;;12.93;9.77;;;1.00;53.10;;;-0.59;63.73;98335.31;4970126;28;20544;-69
2022/03/06 00:52:08;;;;;;;13.73;10.10;;;1.00;53.20;;;-0.73;64.44;98334.72;4987977;28;20562;-68
2022/03/06 00:54:36;;;;;;;13.50;9.17;;;0.90;53.40;;;-0.70;63.86;98332.75;4968634;28;20539;-68
2022/03/06 00:57:03;;;;;;;14.43;9.87;;;0.90;53.60;;;-0.82;64.55;98340.81;4995859;28;20822;-68
2022/03/06 00:59:34;;;;;;;14.30;10.80;;;0.80;53.60;;;-0.90;64.57;98340.66;4993063;28;20575;-70
2022/03/06 01:02:03;;;;;;;16.90;10.87;;;0.70;53.80;;;-0.96;65.48;98335.88;4987155;28;20456;-68
2022/03/06 01:04:30;;;;;;;13.60;9.80;;;0.60;54.30;;;-1.09;65.65;98330.81;4985444;28;20499;-69
2022/03/06 01:06:57;;;;;;;15.80;10.07;;;0.60;54.20;;;-1.10;65.19;98331.78;4970107;28;20555;-68
2022/03/06 01:09:24;;;;;;;13.10;9.07;;;0.50;54.30;;;-1.17;65.98;98340.25;4991415;28;20478;-69
2022/03/06 01:11:52;;;;;;;15.30;9.07;;;0.40;54.30;;;-1.30;66.09;98331.69;4989186;28;20464;-68
2022/03/06 01:14:19;;;;;;;12.60;9.00;;;0.40;54.50;;;-1.35;66.26;98341.84;4989390;28;20468;-69
2022/03/06 01:16:47;;;;;;;14.83;9.40;;;0.30;54.70;;;-1.37;66.12;98338.50;4968668;28;20552;-68
2022/03/06 01:19:14;;;;;;;11.33;9.03;;;0.20;54.90;;;-1.39;66.22;98340.44;4987686;28;20457;-69
2022/03/06 01:21:40;;;;;;;14.73;10.03;;;0.20;55.00;;;-1.87;66.60;98273.78;4970617;28;20898;-68
2022/03/06 01:24:08;;;;;;;15.07;8.70;;;0.10;55.20;;;-1.48;67.04;98332.28;4969624;28;20472;-69
2022/03/06 01:26:36;;;;;;;16.90;9.80;;;0.10;55.40;;;-1.58;67.61;98331.41;4972427;28;20555;-68
2022/03/06 01:29:06;;;;;;;13.40;10.17;;;0.10;55.70;;;-1.96;67.21;98277.19;4990364;28;20464;-70
2022/03/06 01:31:33;;;;;;;13.97;9.47;;;0.00;55.90;;;-1.67;67.79;98329.53;4992808;28;20507;-69
2022/03/06 01:34:02;;;;;;;12.53;9.57;;;0.00;55.90;;;-1.71;68.01;98340.41;4974457;28;21622;-69
2022/03/06 01:36:30;;;;;;;10.70;8.10;;;-0.10;56.30;;;-1.67;68.16;98333.00;4989809;28;20459;-67
2022/03/06 01:38:57;;;;;;;12.97;8.80;;;-0.10;56.40;;;-1.73;67.90;98334.38;4988835;28;20461;-70
2022/03/06 01:41:24;;;;;;;13.80;9.63;;;-0.10;56.60;;;-1.72;67.98;98325.47;4972856;28;20494;-68
2022/03/06 01:43:51;;;;;;;12.30;9.07;;;-0.10;56.70;;;-1.79;67.89;98334.88;4999100;28;20480;-69
2022/03/06 01:46:19;;;;;;;12.90;9.80;;;-0.20;56.80;;;-1.88;68.53;98335.69;4988857;28;20555;-75
2022/03/06 01:48:46;;;;;;;14.33;9.50;;;-0.30;57.00;;;-1.94;69.04;98336.16;4973883;28;20547;-71
2022/03/06 01:51:13;;;;;;;11.30;9.30;;;-0.30;57.30;;;-1.95;68.79;98330.06;4989043;28;20460;-69
2022/03/06 01:53:41;;;;;;;14.17;10.07;;;-0.30;57.70;;;-1.91;69.13;98336.75;4988748;28;20456;-72
2022/03/06 01:56:10;;;;;;;14.90;9.90;;;-0.30;57.90;;;-1.93;69.16;98343.16;4988981;28;20556;-69
2022/03/06 01:58:37;;;;;;;13.27;10.50;;;-0.30;58.10;;;-2.05;69.58;98337.88;4988666;28;20482;-69
2022/03/06 02:01:04;;;;;;;12.93;10.17;;;-0.40;58.20;;;-2.04;69.57;98342.25;4988553;28;20473;-67
2022/03/06 02:03:33;;;;;;;13.23;9.37;;;-0.40;58.50;;;-1.96;69.44;98344.25;4986794;28;20575;-67
2022/03/06 02:06:00;;;;;;;14.40;9.40;;;-0.40;58.80;;;-1.96;69.54;98346.06;4987059;28;20568;-67
2022/03/06 02:08:27;;;;;;;13.13;9.40;;;-0.30;58.70;;;-2.01;69.61;98352.59;4973680;28;21017;-68
2022/03/06 02:10:55;;;;;;;14.10;10.00;;;-0.40;58.70;;;-2.24;69.80;98313.91;4988530;28;20523;-69
2022/03/06 02:13:22;;;;;;;12.63;8.53;;;-0.40;58.90;;;-2.06;70.10;98344.16;4971664;28;20506;-69
2022/03/06 02:15:50;;;;;;;13.03;9.07;;;-0.40;59.20;;;-2.13;70.03;98332.41;4987225;28;20445;-70
2022/03/06 02:18:19;;;;;;;13.13;9.53;;;-0.50;59.40;;;-2.22;70.72;98343.75;4987811;28;20470;-68
2022/03/06 02:20:48;;;;;;;13.53;10.77;;;-0.50;59.70;;;-2.20;70.56;98345.31;4989263;28;20540;-67
2022/03/06 02:23:16;;;;;;;12.70;9.30;;;-0.50;60.10;;;-2.19;70.44;98339.03;4981902;28;20452;-67
2022/03/06 02:25:44;;;;;;;12.30;9.10;;;-0.60;60.20;;;-2.15;70.47;98351.06;4982067;28;20453;-67
2022/03/06 02:28:12;;;;;;;15.43;10.13;;;-0.50;60.50;;;-2.14;70.42;98358.03;4988705;28;20539;-67
2022/03/06 02:30:42;;;;;;;11.87;9.17;;;-0.50;60.50;;;-2.12;70.47;98349.97;4987290;28;20568;-68
2022/03/06 02:33:13;;;;;;;14.17;9.87;;;-0.40;60.60;;;-2.11;70.63;98350.81;4988789;28;20518;-67
2022/03/06 02:35:40;;;;;;;14.03;9.47;;;-0.50;60.80;;;-2.04;70.18;98346.69;4989645;28;20507;-69
2022/03/06 02:38:07;;;;;;;11.07;9.00;;;-0.40;60.70;;;-1.98;70.08;98348.81;4986730;28;21287;-68
2022/03/06 02:40:40;;;;;;;11.33;9.00;;;-0.40;60.80;;;-2.03;70.58;98337.78;4989536;28;20479;-71
2022/03/06 02:43:08;;;;;;;12.70;8.93;;;-0.30;60.80;;;-2.01;70.41;98346.44;4970839;28;20470;-69
2022/03/06 02:45:38;;;;;;;13.37;8.97;;;-0.30;60.90;;;-1.97;70.48;98347.03;4986421;28;20489;-70
2022/03/06 02:48:05;;;;;;;11.43;8.53;;;-0.30;61.00;;;-1.95;70.57;98350.38;4989022;28;20456;-69
2022/03/06 02:50:35;;;;;;;10.90;8.77;;;-0.30;61.10;;;-1.90;70.70;98348.19;4988601;28;20550;-67
2022/03/06 02:53:06;;;;;;;12.60;9.60;;;-0.20;61.20;;;-1.98;70.74;98340.06;4971663;28;20801;-68
2022/03/06 02:55:33;;;;;;;13.00;9.40;;;-0.20;61.60;;;-1.83;69.84;98349.38;4995325;28;20458;-71
2022/03/06 02:58:01;;;;;;;11.50;8.63;;;-0.20;61.20;;;-1.79;70.28;98344.66;4990468;28;20517;-69
2022/03/06 03:00:28;;;;;;;16.73;10.27;;;-0.20;61.00;;;-1.77;69.60;98346.19;4989682;28;20451;-67
2022/03/06 03:02:56;;;;;;;19.30;8.73;;;-0.10;61.20;;;-1.71;69.54;98340.41;4986048;28;20776;-68
2022/03/06 03:05:23;;;;;;;12.47;9.30;;;-0.10;60.90;;;-1.63;69.42;98333.59;4970431;28;20476;-68
2022/03/06 03:07:51;;;;;;;12.90;9.80;;;0.00;60.70;;;-1.61;69.66;98342.25;4986027;28;20927;-69
2022/03/06 03:10:22;;;;;;;13.80;9.90;;;0.00;60.70;;;-1.59;69.21;98335.84;4982991;28;20546;-68
2022/03/06 03:12:49;;;;;;;14.90;10.17;;;0.10;60.80;;;-1.52;69.33;98345.94;4987609;28;20507;-69
2022/03/06 03:15:18;;;;;;;11.70;8.77;;;0.10;60.80;;;-1.49;68.87;98346.50;4988957;28;20464;-70
2022/03/06 03:17:46;;;;;;;15.43;9.97;;;0.10;60.70;;;-1.50;68.91;98344.84;4987105;28;20543;-66
2022/03/06 03:20:15;;;;;;;11.53;8.90;;;0.10;60.70;;;-1.46;68.95;98340.13;4987836;28;20466;-67
2022/03/06 03:22:42;;;;;;;13.83;9.37;;;0.10;60.60;;;-1.52;69.37;98341.47;4971983;28;21055;-69
2022/03/06 03:25:10;;;;;;;17.77;10.47;;;0.10;60.70;;;-1.44;69.11;98344.34;4970326;28;20547;-67
2022/03/06 03:27:38;;;;;;;14.77;10.10;;;0.20;60.80;;;-1.47;68.99;98344.56;4969437;28;20865;-67
2022/03/06 03:30:07;;;;;;;13.40;9.43;;;0.20;60.90;;;-1.42;69.31;98341.53;4962302;28;20465;-68
2022/03/06 03:32:36;;;;;;;13.90;10.67;;;0.20;60.90;;;-1.47;69.72;98349.03;4988111;28;20526;-69
2022/03/06 03:35:03;;;;;;;14.60;10.50;;;0.20;61.00;;;-1.37;69.18;98349.09;4953662;28;20478;-71
2022/03/06 03:37:30;;;;;;;14.40;11.00;;;0.20;60.90;;;-1.36;69.27;98358.72;4986883;28;20809;-69
2022/03/06 03:39:57;;;;;;;13.67;9.67;;;0.30;61.10;;;-1.41;69.68;98356.47;4987065;28;20550;-66
2022/03/06 03:42:24;;;;;;;14.20;9.47;;;0.30;61.10;;;-1.37;69.76;98349.09;4983044;28;20920;-71
2022/03/06 03:44:51;;;;;;;12.90;10.23;;;0.30;61.20;;;-1.36;69.53;98354.28;4986315;28;21064;-68
2022/03/06 03:47:18;;;;;;;16.20;11.67;;;0.30;61.20;;;-1.39;69.48;98359.00;4986388;28;20452;-72
2022/03/06 03:49:47;;;;;;;13.27;10.27;;;0.30;61.30;;;-1.33;69.83;98348.72;4970754;28;20457;-69
2022/03/06 03:52:14;;;;;;;11.10;9.80;;;0.30;61.20;;;-1.39;70.05;98351.03;4966690;28;20488;-68
2022/03/06 03:54:41;;;;;;;14.40;9.60;;;0.30;61.40;;;-1.38;69.92;98358.03;4986490;28;20551;-70
2022/03/06 03:57:08;;;;;;;14.00;11.17;;;0.30;61.40;;;-1.40;69.58;98360.78;4986868;28;20478;-69
2022/03/06 03:59:36;;;;;;;13.67;9.37;;;0.20;61.40;;;-1.44;70.28;98354.94;4988185;28;20631;-68
2022/03/06 04:02:03;;;;;;;14.50;10.40;;;0.30;61.60;;;-1.43;70.24;98356.63;4978414;28;20460;-67
2022/03/06 04:04:31;;;;;;;16.73;11.00;;;0.20;61.60;;;-1.40;69.92;98354.66;4987074;28;20526;-69
2022/03/06 04:06:59;;;;;;;14.07;10.10;;;0.20;61.70;;;-1.35;69.64;98363.06;4987458;28;20518;-67
2022/03/06 04:09:26;;;;;;;13.73;9.03;;;0.30;61.90;;;-1.36;69.71;98366.69;4988348;28;20460;-70
2022/03/06 04:11:53;;;;;;;13.67;10.80;;;0.30;61.80;;;-1.32;69.86;98368.94;4987337;28;20474;-68
2022/03/06 04:14:20;;;;;;;18.03;10.77;;;0.30;61.80;;;-1.39;70.49;98361.66;4987514;28;20456;-69
2022/03/06 04:16:47;;;;;;;14.83;10.47;;;0.20;61.90;;;-1.40;70.24;98366.09;4985270;28;20556;-68
2022/03/06 04:19:14;;;;;;;12.90;10.70;;;0.30;62.10;;;-1.39;70.35;98366.94;4970069;28;20487;-69
2022/03/06 04:21:41;;;;;;;13.30;10.07;;;0.20;62.10;;;-1.33;70.13;98366.41;4986925;28;20493;-68
2022/03/06 04:24:09;;;;;;;15.10;10.70;;;0.30;62.20;;;-1.31;70.08;98369.78;4987078;28;20482;-69
2022/03/06 04:26:37;;;;;;;14.53;9.50;;;0.30;61.90;;;-1.27;69.91;98373.88;4973809;28;20460;-67
2022/03/06 04:29:04;;;;;;;14.03;10.20;;;0.30;61.80;;;-1.29;70.12;98378.44;4989689;28;20502;-68
2022/03/06 04:31:32;;;;;;;13.80;9.77;;;0.30;62.00;;;-1.27;69.86;98380.97;4968749;28;20551;-69
2022/03/06 04:34:00;;;;;;;13.03;10.10;;;0.40;62.00;;;-1.31;70.28;98380.38;4972002;28;20529;-67
2022/03/06 04:36:27;;;;;;;13.80;10.03;;;0.30;62.00;;;-1.34;69.92;98378.00;4972489;28;21195;-68
2022/03/06 04:38:54;;;;;;;13.90;9.70;;;0.30;62.50;;;-1.29;69.81;98383.72;4988798;28;20547;-68
2022/03/06 04:41:23;;;;;;;14.10;9.97;;;0.30;62.20;;;-1.21;69.94;98396.38;4982836;28;20474;-73
2022/03/06 04:43:50;;;;;;;16.90;10.93;;;0.30;62.20;;;-1.31;70.28;98390.97;4974504;28;20504;-69
2022/03/06 04:46:18;;;;;;;13.67;11.07;;;0.30;62.20;;;-1.45;69.67;98363.81;4989777;28;20824;-73
2022/03/06 04:48:45;;;;;;;11.33;9.40;;;0.40;62.10;;;-1.23;69.70;98385.88;4990870;28;20465;-69
2022/03/06 04:51:12;;;;;;;13.77;10.93;;;0.40;62.10;;;-1.33;69.97;98379.66;4991134;28;20541;-70
2022/03/06 04:53:39;;;;;;;14.30;10.53;;;0.40;62.20;;;-1.26;69.54;98390.59;4987262;28;20480;-69
2022/03/06 04:56:07;;;;;;;13.80;9.70;;;0.40;62.10;;;-1.26;70.10;98399.41;4971905;28;20764;-68
2022/03/06 04:58:35;;;;;;;11.60;10.40;;;0.40;62.20;;;-1.30;69.99;98404.13;4989650;28;20471;-67
2022/03/06 05:01:04;;;;;;;14.00;11.43;;;0.30;62.10;;;-1.38;69.87;98395.13;4988562;28;20445;-67
2022/03/06 05:03:31;;;;;;;12.33;10.27;;;0.30;62.20;;;-1.32;70.35;98397.25;4987658;28;20487;-68
2022/03/06 05:05:58;;;;;;;13.20;10.73;;;0.30;62.30;;;-1.35;69.77;98401.03;4987909;28;20615;-69
2022/03/06 05:08:26;;;;;;;14.60;10.43;;;0.30;62.20;;;-1.32;70.09;98399.91;4971249;28;20522;-68
2022/03/06 05:10:55;;;;;;;14.53;10.60;;;0.30;62.30;;;-1.31;70.06;98405.09;4969557;28;20807;-69
2022/03/06 05:13:22;;;;;;;15.40;10.63;;;0.30;62.40;;;-1.31;70.48;98401.59;4989745;28;20802;-68
2022/03/06 05:15:51;;;;;;;14.17;10.33;;;0.30;62.50;;;-1.34;70.15;98402.72;4975418;28;20554;-69
2022/03/06 05:18:18;;;;;;;14.20;10.63;;;0.30;62.50;;;-1.26;70.13;98404.72;4969116;28;21035;-69
2022/03/06 05:20:45;;;;;;;13.07;9.70;;;0.30;62.60;;;-1.24;69.90;98400.13;4974160;28;20510;-66
2022/03/06 05:23:12;;;;;;;13.07;10.10;;;0.30;62.50;;;-1.33;69.87;98400.88;4991180;28;20543;-67
2022/03/06 05:25:39;;;;;;;12.93;9.70;;;0.30;62.30;;;-1.34;69.70;98399.19;4970725;28;20558;-70
2022/03/06 05:28:06;;;;;;;13.20;10.33;;;0.30;62.50;;;-1.43;70.73;98396.38;4988800;28;20522;-68
2022/03/06 05:30:33;;;;;;;14.57;9.37;;;0.20;62.60;;;-1.51;71.00;98401.47;4990107;28;20459;-68
2022/03/06 05:33:01;;;;;;;17.07;9.30;;;0.20;62.80;;;-1.60;71.33;98410.19;4995895;28;20461;-69
2022/03/06 05:35:28;;;;;;;14.53;9.77;;;0.00;63.00;;;-1.78;71.25;98412.56;4971023;28;20492;-69
2022/03/06 05:37:55;;;;;;;13.60;10.23;;;-0.10;63.30;;;-1.79;71.53;98414.38;4988682;28;20524;-68
2022/03/06 05:40:23;;;;;;;13.83;10.73;;;-0.20;63.80;;;-1.84;72.30;98411.25;4989528;28;20827;-69
2022/03/06 05:42:50;;;;;;;12.07;9.13;;;-0.20;64.20;;;-1.96;72.67;98417.56;4971369;28;21001;-69
2022/03/06 05:45:17;;;;;;;11.63;10.30;;;-0.30;64.30;;;-2.08;73.18;98414.13;4989668;28;20476;-69
2022/03/06 05:47:44;;;;;;;14.77;10.70;;;-0.40;64.90;;;-2.10;72.94;98413.41;4990026;28;20978;-68
2022/03/06 05:50:12;;;;;;;13.90;10.30;;;-0.50;65.40;;;-2.15;73.37;98416.44;4972380;28;20470;-67
2022/03/06 05:52:40;;;;;;;15.13;10.50;;;-0.50;65.80;;;-2.29;73.69;98417.53;4971385;28;20556;-67
2022/03/06 05:55:09;;;;;;;13.60;10.00;;;-0.60;66.20;;;-2.23;74.04;98417.03;4986842;28;20464;-68
2022/03/06 05:57:36;;;;;;;16.53;10.40;;;-0.60;66.50;;;-2.30;74.31;98421.13;4990884;28;20456;-68
2022/03/06 06:00:08;;;;;;;13.00;9.60;;;-0.70;66.90;;;-2.29;74.28;98423.69;4987711;28;20455;-67
2022/03/06 06:02:36;;;;;;;15.50;10.50;;;-0.60;67.00;;;-2.26;74.16;98427.91;4987170;28;20544;-68
2022/03/06 06:05:04;;;;;;;16.20;10.33;;;-0.70;67.10;;;-2.30;74.09;98426.44;4988410;28;20488;-68
2022/03/06 06:07:33;;;;;;;15.70;11.40;;;-0.70;67.20;;;-2.22;73.71;98417.88;4987550;28;20478;-68
2022/03/06 06:10:00;;;;;;;13.40;9.73;;;-0.60;67.10;;;-2.23;73.72;98424.13;4973555;28;20925;-70
2022/03/06 06:12:28;;;;;;;13.87;10.70;;;-0.60;67.10;;;-2.10;73.60;98432.78;4968975;28;20542;-69
2022/03/06 06:14:55;;;;;;;17.03;11.80;;;-0.50;67.00;;;-2.07;73.30;98432.53;4981146;28;20827;-69
2022/03/06 06:17:22;;;;;;;15.40;10.57;;;-0.40;66.80;;;-2.01;72.73;98417.94;4988734;28;20494;-67
2022/03/06 06:19:49;;;;;;;15.40;11.10;;;-0.40;66.40;;;-1.85;72.24;98425.47;4989652;28;20753;-69
2022/03/06 06:22:16;;;;;;;17.13;11.77;;;-0.30;66.30;;;-1.83;71.99;98423.53;4989696;28;20492;-71
2022/03/06 06:24:44;;;;;;;13.67;10.40;;;-0.20;66.50;;;-1.76;71.81;98424.69;4988345;28;20464;-68
2022/03/06 06:27:12;;;;;;;13.70;11.13;;;-0.10;65.80;;;-2.00;71.40;98364.84;4977209;28;20456;-68
2022/03/06 06:29:39;;;;;;;14.40;10.77;;;0.00;65.40;;;-1.49;71.53;98428.69;4989978;28;20460;-68
2022/03/06 06:32:07;;;;;;;18.10;10.50;;;0.10;65.40;;;-1.32;70.23;98423.78;4989274;28;20548;-68
2022/03/06 06:34:34;;;;;;;14.20;10.87;;;0.20;64.90;;;-1.37;69.93;98425.97;4985574;28;20563;-68
2022/03/06 06:37:02;;;;;;;16.20;11.00;;;0.30;64.30;;;-1.32;70.29;98431.72;4969841;28;20464;-69
2022/03/06 06:39:29;;;;;;;13.00;9.80;;;0.30;64.20;;;-1.20;69.92;98428.03;4988606;28;20478;-71
2022/03/06 06:41:59;;;;;;;14.67;11.53;;;0.40;64.00;;;-1.23;69.79;98436.25;4971609;28;20564;-69
2022/03/06 06:44:25;;;;;;;16.83;11.47;;;0.40;63.70;;;-1.17;69.27;98433.06;4987743;28;20496;-69
2022/03/06 06:46:52;;;;;;;14.10;10.73;;;0.50;63.40;;;-1.20;69.63;98435.16;4987242;28;20546;-68
2022/03/06 06:49:19;;;;;;;16.30;11.70;;;0.40;63.70;;;-1.33;69.99;98438.00;4974028;28;20461;-70
2022/03/06 06:51:46;;;;;;;15.17;11.47;;;0.40;63.70;;;-1.30;69.82;98429.78;4971125;28;20468;-67
2022/03/06 06:54:13;;;;;;;14.30;10.90;;;0.30;63.50;;;-1.20;69.81;98430.69;4970212;28;20854;-68
2022/03/06 06:56:40;;;;;;;16.83;11.90;;;0.40;63.60;;;-1.24;69.45;98437.22;4986249;28;20493;-68
2022/03/06 06:59:09;;;;;;;13.73;10.40;;;0.40;63.60;;;-1.18;69.00;98439.34;4994156;28;20814;-69
2022/03/06 07:01:36;;;;;;;14.10;10.70;;;0.40;63.20;;;-1.32;69.20;98427.28;4985469;28;20456;-70
2022/03/06 07:04:03;;;;;;;13.67;11.13;;;0.40;63.00;;;-1.27;69.17;98440.16;4989986;28;20465;-71
2022/03/06 07:06:30;;;;;;;14.30;11.57;;;0.40;63.00;;;-1.23;69.59;98433.59;4982364;28;20535;-72
2022/03/06 07:08:57;;;;;;;15.60;11.10;;;0.40;63.10;;;-1.06;69.19;98441.94;4988844;28;20888;-71
2022/03/06 07:11:24;;;;;;;13.73;9.67;;;0.50;63.20;;;-1.06;68.79;98441.94;4985949;28;20543;-73
2022/03/06 07:13:51;;;;;;;14.23;9.90;;;0.50;62.70;;;-1.18;68.84;98439.34;4986333;28;20832;-72
2022/03/06 07:16:19;;;;;;;16.00;12.60;;;0.50;62.60;;;-1.21;68.63;98442.28;4986732;28;20956;-73
2022/03/06 07:18:46;;;;;;;15.30;10.87;;;0.40;62.40;;;-1.20;68.78;98435.16;4986844;28;20572;-71
2022/03/06 07:21:13;;;;;;;14.03;11.13;;;0.50;62.70;;;-1.17;68.45;98449.00;4986089;28;20530;-71
2022/03/06 07:23:40;;;;;;;14.20;11.20;;;0.50;62.40;;;-1.13;68.55;98451.41;4987147;28;20464;-71
2022/03/06 07:26:07;;;;;;;13.50;10.93;;;0.50;62.50;;;-1.00;68.08;98441.41;4985734;28;20570;-72
2022/03/06 07:28:35;;;;;;;15.47;11.60;;;0.60;62.30;;;-0.90;67.88;98452.09;4988542;28;20445;-72
2022/03/06 07:31:02;;;;;;;16.63;11.00;;;0.70;62.20;;;-0.92;68.01;98448.72;4987900;28;20551;-71
2022/03/06 07:33:30;;;;;;;14.10;10.73;;;0.70;62.00;;;-0.90;67.83;98447.63;4985869;28;20981;-72
2022/03/06 07:35:57;;;;;;;19.50;12.00;;;0.70;61.80;;;-0.83;68.00;98452.38;4985389;28;20539;-70
2022/03/06 07:38:24;;;;;;;16.13;11.97;;;0.80;61.70;;;-0.72;67.44;98445.19;4995752;28;20462;-74
2022/03/06 07:40:51;;;;;;;15.40;11.07;;;0.90;61.70;;;-0.73;66.58;98451.47;4986460;28;20986;-72
2022/03/06 07:43:18;;;;;;;15.03;11.63;;;0.90;61.00;;;-0.64;66.58;98452.50;4990577;28;20562;-71
2022/03/06 07:45:45;;;;;;;17.30;13.03;;;0.90;61.40;;;-0.66;66.68;98451.78;4986330;28;20476;-72
2022/03/06 07:48:12;;;;;;;17.10;11.53;;;1.00;60.70;;;-0.50;66.54;98461.06;4986227;28;20568;-72
2022/03/06 07:50:40;;;;;;;17.27;12.70;;;1.00;60.70;;;-0.52;66.45;98455.06;4987986;28;20539;-71
2022/03/06 07:53:08;;;;;;;16.50;12.03;;;1.10;60.60;;;-0.58;66.01;98457.25;4985414;28;20548;-71
2022/03/06 07:55:35;;;;;;;17.83;11.87;;;1.10;60.30;;;-0.58;65.79;98462.56;4987444;28;20486;-72
2022/03/06 07:58:02;;;;;;;16.30;11.30;;;1.10;60.30;;;-0.57;66.48;98458.09;4969462;28;20984;-71
2022/03/06 08:00:29;;;;;;;14.93;10.47;;;1.10;60.30;;;-0.42;65.98;98458.56;4985328;28;20469;-72
2022/03/06 08:02:56;;;;;;;16.20;11.70;;;1.20;60.00;;;-0.50;65.68;98463.72;4984743;28;20492;-72
2022/03/06 08:05:23;;;;;;;17.80;11.80;;;1.20;59.70;;;-0.57;65.99;98468.72;4963908;28;20473;-71
2022/03/06 08:07:52;;;;;;;12.73;11.00;;;1.10;60.10;;;-0.41;65.98;98473.53;4971073;28;20554;-72
2022/03/06 08:10:19;;;;;;;14.97;11.70;;;1.10;59.90;;;-0.46;65.82;98481.88;4989426;28;20460;-71
2022/03/06 08:12:48;;;;;;;15.20;11.97;;;1.10;59.60;;;-0.35;65.28;98473.00;4990807;28;20527;-71
2022/03/06 08:15:16;;;;;;;17.17;12.90;;;1.20;59.50;;;-0.69;65.51;98422.00;4990720;28;20545;-71
2022/03/06 08:17:43;;;;;;;14.83;11.33;;;1.20;59.30;;;-0.08;64.90;98478.66;4973235;28;20480;-72
2022/03/06 08:20:12;;;;;;;16.33;12.07;;;1.40;59.60;;;0.00;63.88;98470.88;4991864;28;20558;-72
2022/03/06 08:22:39;;;;;;;16.80;12.57;;;1.50;58.90;;;0.34;63.52;98475.81;4985737;28;20712;-71
2022/03/06 08:25:09;;;;;;;17.20;12.30;;;1.80;58.80;;;0.53;62.38;98468.81;4984953;28;20464;-71
2022/03/06 08:27:36;;;;;;;14.80;12.07;;;2.00;58.10;;;0.67;62.09;98467.53;4971056;28;20531;-71
2022/03/06 08:30:05;;;;;;;16.73;11.83;;;2.20;57.60;;;1.07;60.84;98463.03;4997397;28;20466;-72
2022/03/06 08:32:33;;;;;;;16.07;12.20;;;2.50;57.20;;;1.07;60.35;98469.16;4971941;28;20940;-70
2022/03/06 08:35:00;;;;;;;16.00;11.77;;;2.60;56.50;;;1.46;59.94;98468.22;4968436;28;20662;-72
2022/03/06 08:37:27;;;;;;;13.27;11.87;;;2.80;56.30;;;1.63;58.60;98469.28;4990856;28;21198;-73
2022/03/06 08:39:54;;;;;;;17.50;12.70;;;3.10;55.20;;;1.66;57.71;98470.78;4988657;28;20459;-73
2022/03/06 08:42:22;;;;;;;14.53;12.47;;;3.20;54.40;;;1.67;57.78;98470.66;4986896;28;20493;-72
2022/03/06 08:44:49;;;;;;;13.03;11.60;;;3.30;53.80;;;1.70;57.81;98465.03;4976316;28;20462;-69
2022/03/06 08:47:16;;;;;;;15.47;12.33;;;3.30;53.70;;;1.80;57.29;98458.81;4990477;28;20986;-72
2022/03/06 08:49:43;;;;;;;18.80;12.63;;;3.30;53.60;;;2.02;56.35;98457.56;4975259;28;20468;-72
2022/03/06 08:52:10;;;;;;;16.43;12.00;;;3.40;53.10;;;2.05;55.62;98451.13;4991149;28;20475;-72
2022/03/06 08:54:38;;;;;;;15.93;12.60;;;3.50;52.50;;;1.84;54.58;98454.84;4990917;28;20941;-72
2022/03/06 08:57:06;;;;;;;15.70;11.67;;;3.50;51.10;;;1.67;53.90;98460.00;4976936;28;20477;-71
2022/03/06 08:59:34;;;;;;;14.60;10.63;;;3.30;49.90;;;1.56;55.50;98457.50;4971245;28;20480;-71
2022/03/06 09:02:01;;;;;;;15.90;11.43;;;3.10;50.60;;;1.61;55.59;98451.75;4973113;28;21011;-71
2022/03/06 09:04:28;;;;;;;13.60;10.97;;;3.10;51.10;;;1.49;54.84;98449.28;4987118;28;20564;-71
2022/03/06 09:06:55;;;;;;;16.70;11.30;;;3.10;50.30;;;1.58;55.25;98460.03;4990234;28;21251;-71
2022/03/06 09:09:22;;;;;;;14.33;11.70;;;3.10;50.60;;;1.74;55.13;98451.41;4977178;28;20452;-73
2022/03/06 09:11:49;;;;;;;15.83;11.50;;;3.20;50.70;;;1.89;54.98;98451.75;4987506;28;20913;-72
2022/03/06 09:14:16;;;;;;;12.63;9.17;;;3.30;50.70;;;2.23;51.28;98437.78;4972935;28;20491;-72
2022/03/06 09:16:44;;;;;;;11.10;8.17;;;3.60;49.00;;;2.39;48.22;98435.25;4988671;28;20546;-72
2022/03/06 09:19:11;;;;;;;12.70;9.50;;;3.80;45.70;;;2.52;48.17;98437.56;4987976;28;20487;-73
2022/03/06 09:21:39;;;;;;;10.07;8.50;;;3.90;45.50;;;2.81;47.36;98443.63;4989065;28;20544;-73
2022/03/06 09:24:08;;;;;;;9.00;7.80;;;4.10;44.90;;;2.61;44.14;98438.47;4992183;28;20847;-72
2022/03/06 09:26:35;;;;;;;10.60;7.97;;;4.20;42.10;;;3.00;45.21;98444.41;4985279;28;20464;-72
2022/03/06 09:29:02;;;;;;;9.37;7.80;;;4.30;42.80;;;2.99;43.47;98448.94;4974254;28;20628;-71
2022/03/06 09:31:29;;;;;;;7.90;7.10;;;4.50;41.50;;;2.87;41.78;98436.81;4973575;28;20546;-71
2022/03/06 09:33:58;;;;;;;11.77;7.50;;;4.40;39.90;;;2.90;42.11;98432.03;4991225;28;20888;-71
2022/03/06 09:36:24;;;;;;;8.67;7.13;;;4.40;39.90;;;2.98;41.41;98439.25;4989586;28;20456;-72
2022/03/06 09:38:51;;;;;;;7.67;6.87;;;4.50;39.60;;;3.04;41.36;98451.13;4989499;28;20470;-72
2022/03/06 09:41:27;;;;;;;10.40;7.37;;;4.50;39.40;;;3.14;41.74;98445.69;4990268;28;20465;-73
2022/03/06 09:43:56;;;;;;;8.10;7.10;;;4.50;40.00;;;3.05;42.08;98445.63;4973024;28;20458;-74
2022/03/06 09:46:24;;;;;;;9.53;7.60;;;4.60;39.70;;;3.09;41.88;98448.81;4971435;28;20485;-71
2022/03/06 09:48:52;;;;;;;9.10;8.00;;;4.60;39.70;;;2.90;42.01;98445.38;4991336;28;20909;-71
2022/03/06 09:51:21;;;;;;;8.60;7.70;;;4.50;39.60;;;2.79;42.09;98449.09;4986561;28;20838;-73
2022/03/06 09:53:48;;;;;;;8.80;7.33;;;4.40;39.50;;;2.95;42.30;98455.56;4971446;28;20823;-73
2022/03/06 09:56:15;;;;;;;11.80;7.37;;;4.40;39.50;;;2.82;40.71;98440.81;4993729;28;20480;-71
2022/03/06 09:58:42;;;;;;;8.60;7.73;;;4.30;38.80;;;2.78;41.52;98443.94;4988980;28;20466;-73
2022/03/06 10:01:09;;;;;;;8.43;7.50;;;4.30;39.00;;;3.16;41.94;98454.38;4986187;28;20891;-72
2022/03/06 10:03:36;;;;;;;10.87;7.57;;;4.50;40.10;;;3.33;41.73;98429.44;4965539;28;20452;-72
2022/03/06 10:06:07;;;;;;;8.70;7.80;;;4.70;39.60;;;3.24;42.22;98436.56;4989190;28;20488;-72
2022/03/06 10:08:35;;;;;;;10.53;7.53;;;4.70;39.60;;;3.34;41.02;98435.63;4986930;28;20558;-71
2022/03/06 10:11:06;;;;;;;8.77;7.10;;;4.80;39.30;;;3.39;39.99;98442.16;4989092;28;21036;-72
2022/03/06 10:13:36;;;;;;;8.80;6.30;;;4.80;38.40;;;3.50;39.95;98437.53;4987578;28;20455;-72
2022/03/06 10:16:07;;;;;;;8.17;7.30;;;4.90;38.20;;;3.77;38.65;98436.47;4989747;28;20469;-72